createdAt,value
2019-05-12T00:02:32.103Z,15.20
2019-05-12T00:07:37.946Z,14.60
2019-05-12T00:12:41.071Z,15.90
2019-05-12T00:17:44.702Z,15.70
2019-05-12T00:22:49.941Z,15.87
2019-05-12T00:27:53.596Z,16.73
2019-05-12T00:32:58.079Z,16.97
2019-05-12T00:38:02.375Z,17.47
2019-05-12T00:43:08.458Z,17.67
2019-05-12T00:48:11.354Z,16.80
2019-05-12T00:53:15.051Z,17.57
2019-05-12T00:58:19.458Z,18.53
2019-05-12T01:03:23.318Z,17.57
2019-05-12T01:08:28.017Z,18.93
2019-05-12T01:13:32.130Z,17.10
2019-05-12T01:18:35.798Z,17.40
2019-05-12T01:23:53.296Z,17.27
2019-05-12T01:28:44.651Z,17.60
2019-05-12T01:33:48.673Z,18.20
2019-05-12T01:38:52.551Z,18.07
2019-05-12T01:43:58.294Z,19.17
2019-05-12T01:49:01.390Z,19.83
2019-05-12T01:54:11.680Z,19.70
2019-05-12T01:59:10.660Z,19.93
2019-05-12T02:04:14.456Z,21.47
2019-05-12T02:09:22.633Z,20.20
2019-05-12T02:14:27.572Z,21.20
2019-05-12T02:19:31.300Z,20.00
2019-05-12T02:24:35.182Z,19.77
2019-05-12T02:29:38.769Z,20.53
2019-05-12T02:34:45.767Z,21.47
2019-05-12T02:39:48.659Z,20.87
2019-05-12T02:44:54.947Z,20.00
2019-05-12T02:49:57.566Z,19.93
2019-05-12T02:55:05.628Z,21.27
2019-05-12T03:00:07.820Z,20.77
2019-05-12T03:05:14.823Z,19.80
2019-05-12T03:10:18.001Z,19.40
2019-05-12T03:15:24.808Z,19.10
2019-05-12T03:20:26.940Z,19.50
2019-05-12T03:25:30.590Z,18.87
2019-05-12T03:30:38.663Z,19.10
2019-05-12T03:35:43.534Z,17.60
2019-05-12T03:40:45.362Z,19.87
2019-05-12T03:45:49.192Z,17.77
2019-05-12T03:50:54.120Z,18.10
2019-05-12T03:55:57.760Z,17.33
2019-05-12T04:01:04.339Z,17.43
2019-05-12T04:06:06.811Z,17.20
2019-05-12T04:11:10.470Z,17.20
2019-05-12T04:16:16.483Z,16.23
2019-05-12T04:21:19.872Z,17.17
2019-05-12T04:26:25.306Z,16.13
2019-05-12T04:31:29.272Z,16.23
2019-05-12T04:36:35.537Z,16.83
2019-05-12T04:41:38.324Z,15.43
2019-05-12T04:46:45.048Z,13.37
2019-05-12T04:51:47.534Z,13.53
2019-05-12T04:56:51.194Z,13.70
2019-05-12T05:01:54.782Z,13.23
2019-05-12T05:06:58.830Z,15.03
2019-05-12T05:12:04.572Z,15.80
2019-05-12T05:17:08.191Z,14.90
2019-05-12T05:22:13.683Z,14.50
2019-05-12T05:27:17.177Z,14.90
2019-05-12T05:32:23.163Z,14.20
2019-05-12T05:37:26.089Z,14.20
2019-05-12T05:42:32.773Z,13.63
2019-05-12T05:47:35.061Z,13.13
2019-05-12T05:52:39.122Z,13.97
2019-05-12T05:57:44.386Z,14.70
2019-05-12T06:02:48.637Z,13.27
2019-05-12T06:07:53.598Z,13.27
2019-05-12T06:12:57.312Z,13.93
2019-05-12T06:18:03.339Z,13.80
2019-05-12T06:23:06.537Z,14.77
2019-05-12T06:28:10.141Z,16.07
2019-05-12T06:33:14.409Z,23.27
2019-05-12T06:38:18.354Z,18.53
2019-05-12T06:43:24.255Z,18.93
2019-05-12T06:48:30.194Z,18.73
2019-05-12T06:53:33.619Z,17.83
2019-05-12T06:58:37.357Z,17.70
2019-05-12T07:03:41.426Z,21.50
2019-05-12T07:08:45.093Z,18.13
2019-05-12T07:14:01.336Z,19.37
2019-05-12T07:18:54.323Z,19.67
2019-05-12T07:24:00.351Z,22.33
2019-05-12T07:29:04.409Z,23.93
2019-05-12T07:34:08.673Z,25.10
2019-05-12T07:39:13.598Z,24.33
2019-05-12T07:44:22.187Z,25.30
2019-05-12T07:49:34.526Z,24.87
2019-05-12T07:54:52.932Z,25.93
2019-05-12T07:59:55.153Z,21.83
2019-05-12T08:04:59.155Z,22.37
2019-05-12T08:10:07.263Z,21.97
2019-05-12T08:15:09.799Z,21.17
2019-05-12T08:20:13.941Z,18.53
2019-05-12T08:25:18.809Z,17.70
2019-05-12T08:30:33.595Z,15.90
2019-05-12T08:35:38.679Z,12.90
2019-05-12T08:40:48.830Z,11.67
2019-05-12T08:45:48.511Z,11.13
2019-05-12T08:50:54.585Z,9.27
2019-05-12T08:55:57.647Z,8.77
2019-05-12T09:01:04.251Z,8.73
2019-05-12T09:06:09.347Z,9.23
2019-05-12T09:11:13.942Z,8.40
2019-05-12T09:16:17.885Z,5.97
2019-05-12T09:21:23.657Z,5.97
2019-05-12T09:26:28.436Z,6.23
2019-05-12T09:31:33.601Z,5.90
2019-05-12T09:36:37.516Z,5.10
2019-05-12T09:41:43.985Z,5.20
2019-05-12T09:46:46.709Z,5.27
2019-05-12T09:51:50.697Z,4.20
2019-05-12T09:56:59.324Z,4.33
2019-05-12T10:02:00.010Z,4.77
2019-05-12T10:07:03.889Z,4.43
2019-05-12T10:12:08.017Z,4.30
2019-05-12T10:17:14.095Z,3.90
2019-05-12T10:22:16.918Z,4.10
2019-05-12T10:27:21.251Z,4.60
2019-05-12T10:32:26.225Z,4.50
2019-05-12T10:37:29.816Z,4.67
2019-05-12T10:42:33.747Z,4.20
2019-05-12T10:47:37.848Z,4.90
2019-05-12T10:52:43.913Z,5.80
2019-05-12T10:57:47.437Z,4.67
2019-05-12T11:02:53.482Z,5.47
2019-05-12T11:08:00.238Z,5.87
2019-05-12T11:13:08.418Z,4.90
2019-05-12T11:18:09.485Z,5.23
2019-05-12T11:23:13.791Z,4.73
2019-05-12T11:28:17.574Z,4.83
2019-05-12T11:33:23.647Z,4.70
2019-05-12T11:38:26.693Z,5.57
2019-05-12T11:43:30.287Z,6.70
2019-05-12T11:48:34.011Z,7.80
2019-05-12T11:53:37.696Z,7.27
2019-05-12T11:58:47.385Z,7.33
2019-05-12T12:03:46.940Z,7.27
2019-05-12T12:08:50.933Z,7.30
2019-05-12T12:13:54.606Z,7.23
2019-05-12T12:19:26.071Z,6.93
2019-05-12T12:24:31.443Z,6.10
2019-05-12T12:29:34.541Z,6.13
2019-05-12T12:34:38.710Z,5.93
2019-05-12T12:39:43.483Z,5.83
2019-05-12T12:44:47.192Z,4.97
2019-05-12T12:49:51.171Z,5.50
2019-05-12T12:54:59.461Z,5.23
2019-05-12T13:00:00.470Z,5.40
2019-05-12T13:05:04.905Z,5.33
2019-05-12T13:10:09.773Z,4.80
2019-05-12T13:15:15.415Z,5.97
2019-05-12T13:20:19.234Z,4.70
2019-05-12T13:25:22.901Z,4.00
2019-05-12T13:30:26.570Z,4.70
2019-05-12T13:35:30.196Z,5.13
2019-05-12T13:40:36.097Z,5.00
2019-05-12T13:45:39.611Z,4.50
2019-05-12T13:50:43.537Z,4.33
2019-05-12T13:55:50.187Z,4.53
2019-05-12T14:01:12.251Z,4.33
2019-05-12T14:06:04.521Z,3.80
2019-05-12T14:11:08.601Z,4.60
2019-05-12T14:16:12.282Z,4.20
2019-05-12T14:21:16.028Z,4.07
2019-05-12T14:26:20.101Z,4.27
2019-05-12T14:31:30.207Z,4.03
2019-05-12T14:36:32.110Z,4.27
2019-05-12T14:41:36.090Z,4.00
2019-05-12T14:46:40.159Z,3.70
2019-05-12T14:51:45.529Z,4.10
2019-05-12T14:56:55.701Z,3.97
2019-05-12T15:01:59.316Z,4.57
2019-05-12T15:07:08.086Z,4.50
2019-05-12T15:12:05.626Z,4.17
2019-05-12T15:17:13.867Z,4.23
2019-05-12T15:22:14.964Z,3.53
2019-05-12T15:27:19.068Z,4.00
2019-05-12T15:32:23.614Z,3.60
2019-05-12T15:37:28.867Z,4.00
2019-05-12T15:42:33.648Z,4.10
2019-05-12T15:47:37.759Z,5.63
2019-05-12T15:53:00.699Z,5.50
2019-05-12T15:58:05.753Z,4.03
2019-05-12T16:03:09.765Z,3.70
2019-05-12T16:08:14.312Z,3.60
2019-05-12T16:13:18.190Z,3.50
2019-05-12T16:18:23.467Z,3.80
2019-05-12T16:23:30.053Z,3.90
2019-05-12T16:28:33.607Z,3.90
2019-05-12T16:33:37.414Z,3.13
2019-05-12T16:38:41.013Z,3.00
2019-05-12T16:43:44.714Z,3.20
2019-05-12T16:48:53.615Z,2.97
2019-05-12T16:53:54.017Z,2.53
2019-05-12T16:58:57.772Z,2.47
2019-05-12T17:04:04.154Z,2.33
2019-05-12T17:09:08.433Z,2.40
2019-05-12T17:14:12.190Z,2.70
2019-05-12T17:19:15.881Z,2.40
2019-05-12T17:24:19.693Z,2.37
2019-05-12T17:29:24.234Z,2.10
2019-05-12T17:34:27.951Z,2.27
2019-05-12T17:39:35.752Z,2.33
2019-05-12T17:44:39.028Z,2.40
2019-05-12T17:49:43.615Z,2.40
2019-05-12T17:54:47.453Z,2.60
2019-05-12T17:59:51.427Z,2.10
2019-05-12T18:04:55.154Z,2.63
2019-05-12T18:10:00.588Z,2.40
2019-05-12T18:15:05.482Z,2.60
2019-05-12T18:20:09.889Z,2.10
2019-05-12T18:25:14.728Z,2.23
2019-05-12T18:30:30.811Z,2.37
2019-05-12T18:35:34.809Z,2.20
2019-05-12T18:40:39.598Z,2.60
2019-05-12T18:45:48.789Z,2.47
2019-05-12T18:50:49.358Z,2.40
2019-05-12T18:55:53.905Z,2.57
2019-05-12T19:00:57.867Z,2.40
2019-05-12T19:06:03.420Z,2.40
2019-05-12T19:11:18.904Z,2.40
2019-05-12T19:16:15.138Z,3.20
2019-05-12T19:21:20.190Z,2.67
2019-05-12T19:26:24.116Z,2.70
2019-05-12T19:31:27.947Z,3.07
2019-05-12T19:36:38.092Z,2.90
2019-05-12T19:41:38.093Z,2.93
2019-05-12T19:46:45.863Z,3.00
2019-05-12T19:51:47.677Z,3.03
2019-05-12T19:56:53.598Z,2.70
2019-05-12T20:01:56.703Z,3.17
2019-05-12T20:07:00.415Z,2.90
2019-05-12T20:12:08.488Z,3.10
2019-05-12T20:17:09.425Z,3.20
2019-05-12T20:22:13.879Z,2.90
2019-05-12T20:27:21.915Z,3.30
2019-05-12T20:32:24.135Z,3.20
2019-05-12T20:37:27.816Z,3.50
2019-05-12T20:42:33.970Z,3.57
2019-05-12T20:47:38.935Z,3.57
2019-05-12T20:52:46.332Z,3.27
2019-05-12T20:57:52.428Z,2.80
2019-05-12T21:02:53.909Z,3.27
2019-05-12T21:08:03.731Z,2.90
2019-05-12T21:13:03.869Z,3.33
2019-05-12T21:18:07.653Z,3.80
2019-05-12T21:23:33.180Z,2.70
2019-05-12T21:28:37.172Z,2.80
2019-05-12T21:33:41.853Z,2.80
2019-05-12T21:38:45.788Z,3.00
2019-05-12T21:43:49.815Z,3.20
2019-05-12T21:48:56.210Z,2.90
2019-05-12T21:53:58.866Z,3.50
2019-05-12T21:59:03.757Z,4.00
2019-05-12T22:04:07.565Z,2.90
2019-05-12T22:09:14.217Z,3.77
2019-05-12T22:14:17.037Z,3.60
2019-05-12T22:19:20.713Z,3.20
2019-05-12T22:24:33.896Z,3.63
2019-05-12T22:29:31.373Z,3.70
2019-05-12T22:34:40.325Z,3.10
2019-05-12T22:39:40.385Z,3.60
2019-05-12T22:44:43.992Z,4.37
2019-05-12T22:49:52.204Z,4.93
2019-05-12T22:54:53.782Z,4.03
2019-05-12T22:59:57.887Z,3.67
2019-05-12T23:05:03.610Z,3.80
2019-05-12T23:10:11.057Z,3.77
2019-05-12T23:15:13.666Z,3.90
2019-05-12T23:20:17.966Z,4.13
2019-05-12T23:25:21.775Z,4.23
2019-05-12T23:30:26.113Z,3.73
2019-05-12T23:35:36.585Z,3.57
2019-05-12T23:40:35.437Z,2.90
2019-05-12T23:45:39.094Z,3.30
2019-05-12T23:50:43.841Z,3.23
2019-05-12T23:55:47.563Z,3.00
